sensor_id;sensor_type;location;lat;lon;timestamp;pressure;altitude;pressure_sealevel;temperature;humidity
77112;BME280;66064;50.226;14.344;2023-01-28T00:01:25;100126.81;;;0.32;84.83
77112;BME280;66064;50.226;14.344;2023-01-28T00:03:51;100123.91;;;0.42;83.79
77112;BME280;66064;50.226;14.344;2023-01-28T00:06:17;100129.69;;;0.37;84.69
77112;BME280;66064;50.226;14.344;2023-01-28T00:08:44;100120.13;;;0.37;84.82
77112;BME280;66064;50.226;14.344;2023-01-28T00:11:11;100134.56;;;0.45;84.18
77112;BME280;66064;50.226;14.344;2023-01-28T00:13:38;100103.16;;;0.30;84.22
77112;BME280;66064;50.226;14.344;2023-01-28T00:16:06;100107.50;;;0.30;83.84
77112;BME280;66064;50.226;14.344;2023-01-28T00:18:36;100109.72;;;0.24;84.45
77112;BME280;66064;50.226;14.344;2023-01-28T00:21:09;100126.06;;;0.34;84.06
77112;BME280;66064;50.226;14.344;2023-01-28T00:23:38;100121.91;;;0.38;84.50
77112;BME280;66064;50.226;14.344;2023-01-28T00:26:10;100125.53;;;0.40;84.49
77112;BME280;66064;50.226;14.344;2023-01-28T00:28:37;100127.88;;;0.35;84.77
77112;BME280;66064;50.226;14.344;2023-01-28T00:31:13;100117.06;;;0.44;84.35
77112;BME280;66064;50.226;14.344;2023-01-28T00:33:41;100115.16;;;0.42;83.55
77112;BME280;66064;50.226;14.344;2023-01-28T00:36:07;100126.97;;;0.35;84.11
77112;BME280;66064;50.226;14.344;2023-01-28T00:38:33;100114.34;;;0.28;84.44
77112;BME280;66064;50.226;14.344;2023-01-28T00:41:11;100116.34;;;0.32;84.03
77112;BME280;66064;50.226;14.344;2023-01-28T00:43:38;100129.16;;;0.42;84.24
77112;BME280;66064;50.226;14.344;2023-01-28T00:46:05;100133.91;;;0.34;84.10
77112;BME280;66064;50.226;14.344;2023-01-28T00:48:35;100118.88;;;0.30;84.74
77112;BME280;66064;50.226;14.344;2023-01-28T00:51:02;100133.81;;;0.33;84.25
77112;BME280;66064;50.226;14.344;2023-01-28T00:53:28;100106.75;;;0.18;84.28
77112;BME280;66064;50.226;14.344;2023-01-28T00:55:54;100127.53;;;0.29;84.07
77112;BME280;66064;50.226;14.344;2023-01-28T00:58:20;100132.31;;;0.37;84.14
77112;BME280;66064;50.226;14.344;2023-01-28T01:00:48;100135.63;;;0.34;84.83
77112;BME280;66064;50.226;14.344;2023-01-28T01:03:14;100135.63;;;0.34;84.84
77112;BME280;66064;50.226;14.344;2023-01-28T01:05:39;100135.19;;;0.41;83.63
77112;BME280;66064;50.226;14.344;2023-01-28T01:08:05;100136.44;;;0.33;84.78
77112;BME280;66064;50.226;14.344;2023-01-28T01:10:31;100135.47;;;0.31;84.62
77112;BME280;66064;50.226;14.344;2023-01-28T01:12:57;100135.63;;;0.34;83.81
77112;BME280;66064;50.226;14.344;2023-01-28T01:15:23;100129.44;;;0.32;83.21
77112;BME280;66064;50.226;14.344;2023-01-28T01:17:49;100113.06;;;0.21;84.46
77112;BME280;66064;50.226;14.344;2023-01-28T01:20:18;100133.09;;;0.35;84.42
77112;BME280;66064;50.226;14.344;2023-01-28T01:22:45;100145.56;;;0.40;84.79
77112;BME280;66064;50.226;14.344;2023-01-28T01:25:13;100124.44;;;0.22;83.92
77112;BME280;66064;50.226;14.344;2023-01-28T01:27:40;100128.06;;;0.24;84.11
77112;BME280;66064;50.226;14.344;2023-01-28T01:30:06;100144.28;;;0.33;84.47
77112;BME280;66064;50.226;14.344;2023-01-28T01:32:33;100148.09;;;0.38;84.55
77112;BME280;66064;50.226;14.344;2023-01-28T01:35:00;100155.75;;;0.35;83.63
77112;BME280;66064;50.226;14.344;2023-01-28T01:37:27;100146.84;;;0.31;83.88
77112;BME280;66064;50.226;14.344;2023-01-28T01:39:53;100148.47;;;0.29;84.02
77112;BME280;66064;50.226;14.344;2023-01-28T01:42:20;100161.66;;;0.31;83.66
77112;BME280;66064;50.226;14.344;2023-01-28T01:45:00;100156.75;;;0.37;83.55
77112;BME280;66064;50.226;14.344;2023-01-28T01:50:31;100160.19;;;0.36;84.15
77112;BME280;66064;50.226;14.344;2023-01-28T01:53:15;100164.63;;;0.37;83.45
77112;BME280;66064;50.226;14.344;2023-01-28T01:55:44;100153.72;;;0.44;83.88
77112;BME280;66064;50.226;14.344;2023-01-28T01:58:14;100141.06;;;0.37;83.52
77112;BME280;66064;50.226;14.344;2023-01-28T02:00:41;100156.75;;;0.37;83.66
77112;BME280;66064;50.226;14.344;2023-01-28T02:03:09;100156.50;;;0.32;84.05
77112;BME280;66064;50.226;14.344;2023-01-28T02:05:35;100138.63;;;0.25;83.84
77112;BME280;66064;50.226;14.344;2023-01-28T02:08:02;100169.03;;;0.38;84.43
77112;BME280;66064;50.226;14.344;2023-01-28T02:10:54;100157.22;;;0.30;83.84
77112;BME280;66064;50.226;14.344;2023-01-28T02:13:24;100158.38;;;0.35;84.84
77112;BME280;66064;50.226;14.344;2023-01-28T02:15:51;100156.25;;;0.43;83.55
77112;BME280;66064;50.226;14.344;2023-01-28T02:18:18;100158.56;;;0.38;84.44
77112;BME280;66064;50.226;14.344;2023-01-28T02:29:20;100154.25;;;0.39;84.61
77112;BME280;66064;50.226;14.344;2023-01-28T02:31:58;100163.19;;;0.42;83.58
77112;BME280;66064;50.226;14.344;2023-01-28T02:34:35;100167.34;;;0.53;84.53
77112;BME280;66064;50.226;14.344;2023-01-28T02:37:11;100162.72;;;0.49;83.82
77112;BME280;66064;50.226;14.344;2023-01-28T02:39:43;100148.91;;;0.37;83.36
77112;BME280;66064;50.226;14.344;2023-01-28T02:42:23;100156.06;;;0.40;83.63
77112;BME280;66064;50.226;14.344;2023-01-28T02:44:52;100139.81;;;0.30;84.82
77112;BME280;66064;50.226;14.344;2023-01-28T02:47:17;100171.66;;;0.38;84.78
77112;BME280;66064;50.226;14.344;2023-01-28T02:50:06;100173.19;;;0.49;84.54
77112;BME280;66064;50.226;14.344;2023-01-28T02:55:43;100147.91;;;0.35;84.18
77112;BME280;66064;50.226;14.344;2023-01-28T03:01:07;100168.53;;;0.44;83.84
77112;BME280;66064;50.226;14.344;2023-01-28T03:06:09;100170.66;;;0.36;84.34
77112;BME280;66064;50.226;14.344;2023-01-28T03:08:46;100172.22;;;0.47;84.61
77112;BME280;66064;50.226;14.344;2023-01-28T03:11:38;100161.28;;;0.40;84.61
77112;BME280;66064;50.226;14.344;2023-01-28T03:14:24;100172.28;;;0.34;85.30
77112;BME280;66064;50.226;14.344;2023-01-28T03:17:15;100167.06;;;0.34;84.90
77112;BME280;66064;50.226;14.344;2023-01-28T03:20:01;100158.56;;;0.38;84.17
77112;BME280;66064;50.226;14.344;2023-01-28T03:22:49;100165.81;;;0.42;84.69
77112;BME280;66064;50.226;14.344;2023-01-28T03:25:34;100159.56;;;0.40;84.27
77112;BME280;66064;50.226;14.344;2023-01-28T03:28:21;100157.34;;;0.46;85.08
77112;BME280;66064;50.226;14.344;2023-01-28T03:31:11;100159.47;;;0.39;84.26
77112;BME280;66064;50.226;14.344;2023-01-28T03:33:58;100162.00;;;0.37;83.92
77112;BME280;66064;50.226;14.344;2023-01-28T03:36:43;100157.13;;;0.28;85.12
77112;BME280;66064;50.226;14.344;2023-01-28T03:39:21;100152.44;;;0.23;85.37
77112;BME280;66064;50.226;14.344;2023-01-28T03:41:57;100175.91;;;0.36;85.68
77112;BME280;66064;50.226;14.344;2023-01-28T03:44:24;100177.72;;;0.37;84.94
77112;BME280;66064;50.226;14.344;2023-01-28T03:47:09;100169.75;;;0.35;84.47
77112;BME280;66064;50.226;14.344;2023-01-28T03:49:44;100167.16;;;0.50;83.26
77112;BME280;66064;50.226;14.344;2023-01-28T03:52:11;100152.44;;;0.38;84.04
77112;BME280;66064;50.226;14.344;2023-01-28T03:54:38;100161.38;;;0.41;84.15
77112;BME280;66064;50.226;14.344;2023-01-28T03:57:03;100174.47;;;0.41;83.97
77112;BME280;66064;50.226;14.344;2023-01-28T03:59:31;100162.91;;;0.38;84.14
77112;BME280;66064;50.226;14.344;2023-01-28T04:01:57;100177.72;;;0.37;85.24
77112;BME280;66064;50.226;14.344;2023-01-28T04:04:23;100179.72;;;0.41;85.35
77112;BME280;66064;50.226;14.344;2023-01-28T04:06:51;100174.66;;;0.44;85.29
77112;BME280;66064;50.226;14.344;2023-01-28T04:09:18;100180.91;;;0.46;85.21
77112;BME280;66064;50.226;14.344;2023-01-28T04:11:44;100181.16;;;0.51;83.87
77112;BME280;66064;50.226;14.344;2023-01-28T04:14:10;100176.28;;;0.42;84.42
77112;BME280;66064;50.226;14.344;2023-01-28T04:16:36;100175.47;;;0.43;83.92
77112;BME280;66064;50.226;14.344;2023-01-28T04:19:02;100176.47;;;0.45;84.36
77112;BME280;66064;50.226;14.344;2023-01-28T04:21:28;100179.34;;;0.50;84.26
77112;BME280;66064;50.226;14.344;2023-01-28T04:23:54;100176.66;;;0.48;83.57
77112;BME280;66064;50.226;14.344;2023-01-28T04:26:19;100176.66;;;0.48;84.09
77112;BME280;66064;50.226;14.344;2023-01-28T04:28:45;100138.19;;;0.32;82.81
77112;BME280;66064;50.226;14.344;2023-01-28T04:31:11;100167.72;;;0.45;82.74
77112;BME280;66064;50.226;14.344;2023-01-28T04:33:37;100195.72;;;0.60;83.20
77112;BME280;66064;50.226;14.344;2023-01-28T04:36:03;100183.66;;;0.49;83.10
77112;BME280;66064;50.226;14.344;2023-01-28T04:38:29;100182.06;;;0.51;83.18
77112;BME280;66064;50.226;14.344;2023-01-28T04:40:55;100193.09;;;0.60;83.18
77112;BME280;66064;50.226;14.344;2023-01-28T04:43:21;100193.81;;;0.58;83.90
77112;BME280;66064;50.226;14.344;2023-01-28T04:45:47;100185.84;;;0.56;82.87
77112;BME280;66064;50.226;14.344;2023-01-28T04:48:14;100173.38;;;0.52;83.09
77112;BME280;66064;50.226;14.344;2023-01-28T04:50:41;100183.97;;;0.54;83.24
77112;BME280;66064;50.226;14.344;2023-01-28T04:53:08;100185.44;;;0.63;82.71
77112;BME280;66064;50.226;14.344;2023-01-28T04:55:34;100179.81;;;0.57;83.92
77112;BME280;66064;50.226;14.344;2023-01-28T04:58:00;100173.03;;;0.46;83.59
77112;BME280;66064;50.226;14.344;2023-01-28T05:00:26;100189.28;;;0.55;83.49
77112;BME280;66064;50.226;14.344;2023-01-28T05:02:52;100203.38;;;0.57;83.27
77112;BME280;66064;50.226;14.344;2023-01-28T05:05:17;100198.84;;;0.55;83.78
77112;BME280;66064;50.226;14.344;2023-01-28T05:07:50;100190.72;;;0.50;83.98
77112;BME280;66064;50.226;14.344;2023-01-28T05:10:15;100202.66;;;0.60;83.39
77112;BME280;66064;50.226;14.344;2023-01-28T05:12:43;100203.09;;;0.53;83.38
77112;BME280;66064;50.226;14.344;2023-01-28T05:15:09;100206.91;;;0.58;83.69
77112;BME280;66064;50.226;14.344;2023-01-28T05:17:36;100209.00;;;0.63;83.46
77112;BME280;66064;50.226;14.344;2023-01-28T05:20:03;100206.09;;;0.59;82.88
77112;BME280;66064;50.226;14.344;2023-01-28T05:22:29;100202.56;;;0.58;83.15
77112;BME280;66064;50.226;14.344;2023-01-28T05:24:55;100206.44;;;0.50;82.85
77112;BME280;66064;50.226;14.344;2023-01-28T05:27:21;100185.31;;;0.47;82.40
77112;BME280;66064;50.226;14.344;2023-01-28T05:29:46;100205.19;;;0.58;83.01
77112;BME280;66064;50.226;14.344;2023-01-28T05:32:12;100197.75;;;0.51;83.69
77112;BME280;66064;50.226;14.344;2023-01-28T05:34:38;100203.00;;;0.51;83.28
77112;BME280;66064;50.226;14.344;2023-01-28T05:37:04;100201.03;;;0.47;83.91
77112;BME280;66064;50.226;14.344;2023-01-28T05:39:30;100202.09;;;0.51;83.11
77112;BME280;66064;50.226;14.344;2023-01-28T05:41:57;100191.38;;;0.46;82.64
77112;BME280;66064;50.226;14.344;2023-01-28T05:44:22;100206.28;;;0.47;82.80
77112;BME280;66064;50.226;14.344;2023-01-28T05:46:49;100203.28;;;0.41;83.52
77112;BME280;66064;50.226;14.344;2023-01-28T05:49:14;100215.28;;;0.52;83.82
77112;BME280;66064;50.226;14.344;2023-01-28T05:51:41;100215.09;;;0.49;83.37
77112;BME280;66064;50.226;14.344;2023-01-28T05:54:08;100205.38;;;0.47;84.02
77112;BME280;66064;50.226;14.344;2023-01-28T05:56:35;100203.38;;;0.43;84.00
77112;BME280;66064;50.226;14.344;2023-01-28T05:59:02;100218.38;;;0.45;83.52
77112;BME280;66064;50.226;14.344;2023-01-28T06:01:29;100205.19;;;0.44;83.05
77112;BME280;66064;50.226;14.344;2023-01-28T06:03:54;100208.69;;;0.44;82.82
77112;BME280;66064;50.226;14.344;2023-01-28T06:06:21;100219.47;;;0.49;83.93
77112;BME280;66064;50.226;14.344;2023-01-28T06:08:47;100200.56;;;0.40;84.18
77112;BME280;66064;50.226;14.344;2023-01-28T06:11:13;100211.13;;;0.41;84.19
77112;BME280;66064;50.226;14.344;2023-01-28T06:13:38;100226.41;;;0.48;84.17
77112;BME280;66064;50.226;14.344;2023-01-28T06:16:07;100241.28;;;0.49;83.32
77112;BME280;66064;50.226;14.344;2023-01-28T06:18:33;100233.41;;;0.34;83.19
77112;BME280;66064;50.226;14.344;2023-01-28T06:20:59;100241.84;;;0.44;84.15
77112;BME280;66064;50.226;14.344;2023-01-28T06:23:25;100245.47;;;0.46;82.75
77112;BME280;66064;50.226;14.344;2023-01-28T06:25:55;100230.78;;;0.34;83.35
77112;BME280;66064;50.226;14.344;2023-01-28T06:28:21;100251.00;;;0.37;83.46
77112;BME280;66064;50.226;14.344;2023-01-28T06:30:48;100246.88;;;0.41;83.40
77112;BME280;66064;50.226;14.344;2023-01-28T06:33:14;100239.19;;;0.29;82.85
77112;BME280;66064;50.226;14.344;2023-01-28T06:35:40;100256.16;;;0.35;83.46
77112;BME280;66064;50.226;14.344;2023-01-28T06:38:07;100239.44;;;0.33;83.16
77112;BME280;66064;50.226;14.344;2023-01-28T06:40:33;100251.50;;;0.45;83.12
77112;BME280;66064;50.226;14.344;2023-01-28T06:42:59;100257.34;;;0.41;82.48
77112;BME280;66064;50.226;14.344;2023-01-28T06:45:25;100264.59;;;0.45;82.44
77112;BME280;66064;50.226;14.344;2023-01-28T06:47:51;100263.06;;;0.48;82.23
77112;BME280;66064;50.226;14.344;2023-01-28T06:50:17;100262.69;;;0.42;83.03
77112;BME280;66064;50.226;14.344;2023-01-28T06:52:42;100267.13;;;0.43;82.64
77112;BME280;66064;50.226;14.344;2023-01-28T06:55:09;100271.06;;;0.37;83.26
77112;BME280;66064;50.226;14.344;2023-01-28T06:57:38;100270.78;;;0.32;83.76
77112;BME280;66064;50.226;14.344;2023-01-28T07:00:08;100289.47;;;0.38;83.04
77112;BME280;66064;50.226;14.344;2023-01-28T07:02:36;100281.34;;;0.33;83.80
77112;BME280;66064;50.226;14.344;2023-01-28T07:05:03;100292.91;;;0.37;82.40
77112;BME280;66064;50.226;14.344;2023-01-28T07:07:29;100283.78;;;0.30;83.25
77112;BME280;66064;50.226;14.344;2023-01-28T07:09:55;100297.03;;;0.33;83.17
77112;BME280;66064;50.226;14.344;2023-01-28T07:12:21;100300.31;;;0.29;83.82
77112;BME280;66064;50.226;14.344;2023-01-28T07:14:47;100302.13;;;0.30;83.72
77112;BME280;66064;50.226;14.344;2023-01-28T07:17:12;100299.75;;;0.35;82.78
77112;BME280;66064;50.226;14.344;2023-01-28T07:19:38;100310.13;;;0.33;82.59
77112;BME280;66064;50.226;14.344;2023-01-28T07:22:04;100308.41;;;0.34;82.63
77112;BME280;66064;50.226;14.344;2023-01-28T07:24:30;100312.94;;;0.37;83.01
77112;BME280;66064;50.226;14.344;2023-01-28T07:26:57;100289.44;;;0.23;82.67
77112;BME280;66064;50.226;14.344;2023-01-28T07:29:23;100313.28;;;0.28;83.24
77112;BME280;66064;50.226;14.344;2023-01-28T07:31:49;100302.63;;;0.25;82.16
77112;BME280;66064;50.226;14.344;2023-01-28T07:34:15;100311.47;;;0.27;82.67
77112;BME280;66064;50.226;14.344;2023-01-28T07:36:41;100316.72;;;0.27;83.01
77112;BME280;66064;50.226;14.344;2023-01-28T07:39:07;100310.69;;;0.28;82.59
77112;BME280;66064;50.226;14.344;2023-01-28T07:41:33;100313.38;;;0.29;82.69
77112;BME280;66064;50.226;14.344;2023-01-28T07:43:59;100314.56;;;0.34;82.45
77112;BME280;66064;50.226;14.344;2023-01-28T07:46:24;100291.59;;;0.16;82.38
77112;BME280;66064;50.226;14.344;2023-01-28T07:48:50;100305.00;;;0.35;81.32
77112;BME280;66064;50.226;14.344;2023-01-28T07:51:16;100317.28;;;0.36;81.74
77112;BME280;66064;50.226;14.344;2023-01-28T07:53:42;100322.72;;;0.39;81.99
77112;BME280;66064;50.226;14.344;2023-01-28T07:56:08;100321.91;;;0.40;82.52
77112;BME280;66064;50.226;14.344;2023-01-28T07:58:34;100331.19;;;0.35;82.23
77112;BME280;66064;50.226;14.344;2023-01-28T08:01:00;100336.25;;;0.32;81.96
77112;BME280;66064;50.226;14.344;2023-01-28T08:03:27;100332.19;;;0.37;81.43
77112;BME280;66064;50.226;14.344;2023-01-28T08:05:54;100333.19;;;0.39;82.59
77112;BME280;66064;50.226;14.344;2023-01-28T08:08:25;100341.84;;;0.38;81.23
77112;BME280;66064;50.226;14.344;2023-01-28T08:10:54;100346.97;;;0.37;82.93
77112;BME280;66064;50.226;14.344;2023-01-28T08:13:20;100340.03;;;0.37;81.44
77112;BME280;66064;50.226;14.344;2023-01-28T08:15:46;100328.41;;;0.32;81.55
77112;BME280;66064;50.226;14.344;2023-01-28T08:18:13;100355.44;;;0.46;81.92
77112;BME280;66064;50.226;14.344;2023-01-28T08:20:40;100322.00;;;0.42;81.38
77112;BME280;66064;50.226;14.344;2023-01-28T08:23:11;100346.41;;;0.55;80.15
77112;BME280;66064;50.226;14.344;2023-01-28T08:25:37;100353.28;;;0.53;81.16
77112;BME280;66064;50.226;14.344;2023-01-28T08:28:04;100354.06;;;0.52;80.98
77112;BME280;66064;50.226;14.344;2023-01-28T08:30:30;100346.41;;;0.55;80.77
77112;BME280;66064;50.226;14.344;2023-01-28T08:32:58;100325.84;;;0.33;80.21
77112;BME280;66064;50.226;14.344;2023-01-28T08:35:25;100357.34;;;0.48;80.46
77112;BME280;66064;50.226;14.344;2023-01-28T08:37:51;100343.84;;;0.42;80.11
77112;BME280;66064;50.226;14.344;2023-01-28T08:40:18;100355.19;;;0.56;79.83
77112;BME280;66064;50.226;14.344;2023-01-28T08:42:48;100362.63;;;0.63;79.91
77112;BME280;66064;50.226;14.344;2023-01-28T08:45:14;100362.34;;;0.58;78.63
77112;BME280;66064;50.226;14.344;2023-01-28T08:50:20;100369.47;;;0.61;78.90
77112;BME280;66064;50.226;14.344;2023-01-28T08:52:46;100377.19;;;0.73;78.00
77112;BME280;66064;50.226;14.344;2023-01-28T08:55:15;100367.88;;;0.63;77.70
77112;BME280;66064;50.226;14.344;2023-01-28T08:57:41;100370.19;;;0.58;77.77
77112;BME280;66064;50.226;14.344;2023-01-28T09:00:09;100363.50;;;0.49;79.08
77112;BME280;66064;50.226;14.344;2023-01-28T09:02:38;100375.53;;;0.60;78.68
77112;BME280;66064;50.226;14.344;2023-01-28T09:05:04;100380.47;;;0.55;78.67
77112;BME280;66064;50.226;14.344;2023-01-28T09:07:32;100353.63;;;0.45;78.22
77112;BME280;66064;50.226;14.344;2023-01-28T09:09:58;100393.38;;;0.52;78.88
77112;BME280;66064;50.226;14.344;2023-01-28T09:12:24;100372.06;;;0.46;78.53
77112;BME280;66064;50.226;14.344;2023-01-28T09:14:50;100400.41;;;0.53;77.31
77112;BME280;66064;50.226;14.344;2023-01-28T09:17:18;100395.63;;;0.33;77.77
77112;BME280;66064;50.226;14.344;2023-01-28T09:19:44;100398.34;;;0.34;77.55
77112;BME280;66064;50.226;14.344;2023-01-28T09:22:10;100412.06;;;0.30;77.95
77112;BME280;66064;50.226;14.344;2023-01-28T09:24:36;100378.56;;;0.12;76.40
77112;BME280;66064;50.226;14.344;2023-01-28T09:27:02;100408.22;;;0.25;76.96
77112;BME280;66064;50.226;14.344;2023-01-28T09:29:28;100402.59;;;0.19;77.24
77112;BME280;66064;50.226;14.344;2023-01-28T09:31:54;100412.25;;;0.20;76.57
77112;BME280;66064;50.226;14.344;2023-01-28T09:34:20;100422.53;;;0.30;77.60
77112;BME280;66064;50.226;14.344;2023-01-28T09:36:46;100434.31;;;0.24;76.85
77112;BME280;66064;50.226;14.344;2023-01-28T09:39:12;100433.50;;;0.25;77.67
77112;BME280;66064;50.226;14.344;2023-01-28T09:42:12;100426.56;;;0.25;76.70
77112;BME280;66064;50.226;14.344;2023-01-28T09:45:04;100433.50;;;0.25;77.23
77112;BME280;66064;50.226;14.344;2023-01-28T09:50:07;100433.28;;;0.35;76.34
77112;BME280;66064;50.226;14.344;2023-01-28T09:52:36;100431.09;;;0.28;75.31
77112;BME280;66064;50.226;14.344;2023-01-28T09:55:11;100429.75;;;0.34;75.65
77112;BME280;66064;50.226;14.344;2023-01-28T09:57:44;100437.31;;;0.17;75.42
77112;BME280;66064;50.226;14.344;2023-01-28T10:00:16;100440.97;;;0.06;76.59
77112;BME280;66064;50.226;14.344;2023-01-28T10:03:00;100437.31;;;0.17;75.13
77112;BME280;66064;50.226;14.344;2023-01-28T10:05:39;100436.75;;;0.08;75.44
77112;BME280;66064;50.226;14.344;2023-01-28T10:14:27;100440.16;;;0.07;75.35
77112;BME280;66064;50.226;14.344;2023-01-28T10:17:15;100431.41;;;0.06;74.71
77112;BME280;66064;50.226;14.344;2023-01-28T10:19:46;100415.13;;;-0.03;74.51
77112;BME280;66064;50.226;14.344;2023-01-28T10:22:22;100443.38;;;0.03;74.17
77112;BME280;66064;50.226;14.344;2023-01-28T10:24:54;100451.03;;;-0.01;73.92
77112;BME280;66064;50.226;14.344;2023-01-28T10:27:27;100408.16;;;-0.29;75.22
77112;BME280;66064;50.226;14.344;2023-01-28T10:29:55;100444.59;;;-0.06;73.90
77112;BME280;66064;50.226;14.344;2023-01-28T10:32:30;100449.03;;;-0.05;74.48
77112;BME280;66064;50.226;14.344;2023-01-28T10:34:59;100418.59;;;-0.16;73.21
77112;BME280;66064;50.226;14.344;2023-01-28T10:37:28;100430.72;;;-0.18;74.15
77112;BME280;66064;50.226;14.344;2023-01-28T10:39:57;100452.03;;;0.02;75.01
77112;BME280;66064;50.226;14.344;2023-01-28T10:42:33;100453.03;;;0.04;75.43
77112;BME280;66064;50.226;14.344;2023-01-28T10:45:07;100429.91;;;-0.04;75.48
77112;BME280;66064;50.226;14.344;2023-01-28T10:47:55;100466.09;;;0.17;75.12
77112;BME280;66064;50.226;14.344;2023-01-28T10:50:27;100465.50;;;0.21;75.87
77112;BME280;66064;50.226;14.344;2023-01-28T10:53:00;100468.03;;;0.06;74.34
77112;BME280;66064;50.226;14.344;2023-01-28T10:55:53;100454.94;;;0.06;75.86
77112;BME280;66064;50.226;14.344;2023-01-28T10:58:23;100464.63;;;-0.06;75.71
77112;BME280;66064;50.226;14.344;2023-01-28T11:00:56;100455.38;;;-0.01;75.66
77112;BME280;66064;50.226;14.344;2023-01-28T11:03:24;100441.56;;;-0.12;74.32
77112;BME280;66064;50.226;14.344;2023-01-28T11:05:56;100459.06;;;-0.11;74.83
77112;BME280;66064;50.226;14.344;2023-01-28T11:08:25;100458.88;;;-0.14;74.96
77112;BME280;66064;50.226;14.344;2023-01-28T11:10:52;100449.81;;;-0.19;73.76
77112;BME280;66064;50.226;14.344;2023-01-28T11:13:27;100469.97;;;-0.05;75.02
77112;BME280;66064;50.226;14.344;2023-01-28T11:16:05;100458.91;;;-0.01;75.20
77112;BME280;66064;50.226;14.344;2023-01-28T11:18:47;100464.13;;;0.13;73.66
77112;BME280;66064;50.226;14.344;2023-01-28T11:21:20;100436.53;;;-0.09;72.73
77112;BME280;66064;50.226;14.344;2023-01-28T11:23:56;100446.09;;;-0.09;73.61
77112;BME280;66064;50.226;14.344;2023-01-28T11:26:27;100468.53;;;0.00;72.39
77112;BME280;66064;50.226;14.344;2023-01-28T11:28:54;100445.50;;;-0.05;72.82
77112;BME280;66064;50.226;14.344;2023-01-28T11:31:22;100455.53;;;0.02;73.18
77112;BME280;66064;50.226;14.344;2023-01-28T11:34:00;100457.19;;;0.13;71.69
77112;BME280;66064;50.226;14.344;2023-01-28T11:36:29;100464.81;;;-0.03;70.65
77112;BME280;66064;50.226;14.344;2023-01-28T11:39:15;100463.13;;;0.11;70.62
77112;BME280;66064;50.226;14.344;2023-01-28T11:41:42;100453.94;;;0.17;71.21
77112;BME280;66064;50.226;14.344;2023-01-28T11:44:18;100459.91;;;0.15;69.86
77112;BME280;66064;50.226;14.344;2023-01-28T11:55:27;100478.41;;;0.05;70.62
77112;BME280;66064;50.226;14.344;2023-01-28T12:00:41;100475.78;;;0.18;71.40
77112;BME280;66064;50.226;14.344;2023-01-28T12:05:56;100481.53;;;-0.01;70.07
77112;BME280;66064;50.226;14.344;2023-01-28T12:08:38;100467.13;;;0.06;71.17
77112;BME280;66064;50.226;14.344;2023-01-28T12:11:32;100475.28;;;0.10;70.61
77112;BME280;66064;50.226;14.344;2023-01-28T12:14:31;100462.69;;;-0.09;69.58
77112;BME280;66064;50.226;14.344;2023-01-28T12:17:09;100482.81;;;0.06;70.63
77112;BME280;66064;50.226;14.344;2023-01-28T12:22:54;100486.47;;;0.08;71.36
77112;BME280;66064;50.226;14.344;2023-01-28T12:28:20;100455.66;;;0.04;71.09
77112;BME280;66064;50.226;14.344;2023-01-28T12:31:08;100474.59;;;0.13;69.82
77112;BME280;66064;50.226;14.344;2023-01-28T12:36:26;100475.06;;;0.20;68.99
77112;BME280;66064;50.226;14.344;2023-01-28T12:39:34;100474.00;;;0.30;68.18
77112;BME280;66064;50.226;14.344;2023-01-28T12:42:08;100448.44;;;0.13;67.90
77112;BME280;66064;50.226;14.344;2023-01-28T12:44:41;100478.81;;;0.24;67.80
77112;BME280;66064;50.226;14.344;2023-01-28T12:47:11;100460.28;;;0.08;68.13
77112;BME280;66064;50.226;14.344;2023-01-28T12:49:45;100488.28;;;0.09;68.34
77112;BME280;66064;50.226;14.344;2023-01-28T12:52:23;100486.25;;;0.05;68.76
77112;BME280;66064;50.226;14.344;2023-01-28T12:57:37;100472.56;;;-0.05;68.24
77112;BME280;66064;50.226;14.344;2023-01-28T13:05:33;100481.59;;;-0.13;68.55
77112;BME280;66064;50.226;14.344;2023-01-28T13:08:08;100467.72;;;-0.25;68.39
77112;BME280;66064;50.226;14.344;2023-01-28T13:10:39;100478.88;;;-0.14;68.64
77112;BME280;66064;50.226;14.344;2023-01-28T13:13:31;100490.09;;;-0.04;68.64
77112;BME280;66064;50.226;14.344;2023-01-28T13:15:58;100467.34;;;-0.18;67.93
77112;BME280;66064;50.226;14.344;2023-01-28T13:23:45;100481.69;;;-0.24;68.61
77112;BME280;66064;50.226;14.344;2023-01-28T13:28:52;100495.56;;;-0.25;68.37
77112;BME280;66064;50.226;14.344;2023-01-28T13:31:21;100484.66;;;-0.45;68.29
77112;BME280;66064;50.226;14.344;2023-01-28T13:34:01;100490.59;;;-0.47;69.24
77112;BME280;66064;50.226;14.344;2023-01-28T13:39:05;100479.69;;;-0.66;69.41
77112;BME280;66064;50.226;14.344;2023-01-28T13:41:40;100480.16;;;-0.72;69.05
77112;BME280;66064;50.226;14.344;2023-01-28T13:44:20;100486.91;;;-0.62;68.20
77112;BME280;66064;50.226;14.344;2023-01-28T13:46:46;100481.81;;;-0.86;67.73
77112;BME280;66064;50.226;14.344;2023-01-28T13:49:17;100491.53;;;-0.72;69.29
77112;BME280;66064;50.226;14.344;2023-01-28T13:54:35;100503.25;;;-0.78;68.32
77112;BME280;66064;50.226;14.344;2023-01-28T14:10:34;100526.25;;;-1.22;67.21
77112;BME280;66064;50.226;14.344;2023-01-28T14:13:12;100515.34;;;-1.28;66.98
77112;BME280;66064;50.226;14.344;2023-01-28T14:15:56;100541.91;;;-1.22;67.10
77112;BME280;66064;50.226;14.344;2023-01-28T14:18:27;100535.44;;;-1.27;67.24
77112;BME280;66064;50.226;14.344;2023-01-28T14:20:55;100519.91;;;-1.37;66.60
77112;BME280;66064;50.226;14.344;2023-01-28T14:23:25;100525.94;;;-1.38;67.41
77112;BME280;66064;50.226;14.344;2023-01-28T14:26:15;100538.31;;;-1.36;67.47
77112;BME280;66064;50.226;14.344;2023-01-28T14:31:38;100553.88;;;-1.49;68.56
77112;BME280;66064;50.226;14.344;2023-01-28T14:34:23;100547.16;;;-1.57;68.36
77112;BME280;66064;50.226;14.344;2023-01-28T14:36:55;100551.38;;;-1.59;69.37